createdAt,value
2022-08-05T00:01:36.453Z,19.99
2022-08-05T00:04:18.671Z,19.97
2022-08-05T00:06:51.547Z,19.95
2022-08-05T00:09:20.732Z,19.93
2022-08-05T00:11:55.663Z,19.90
2022-08-05T00:14:27.830Z,19.88
2022-08-05T00:16:58.345Z,19.87
2022-08-05T00:19:33.182Z,19.85
2022-08-05T00:22:11.385Z,19.83
2022-08-05T00:24:42.343Z,19.81
2022-08-05T00:27:14.019Z,19.78
2022-08-05T00:29:45.866Z,19.73
2022-08-05T00:32:15.813Z,19.68
2022-08-05T00:35:05.603Z,19.65
2022-08-05T00:37:53.334Z,19.61
2022-08-05T00:40:28.485Z,19.56
2022-08-05T00:43:01.278Z,19.52
2022-08-05T00:45:42.965Z,19.47
2022-08-05T00:48:18.354Z,19.45
2022-08-05T00:50:56.561Z,19.45
2022-08-05T00:54:00.253Z,19.45
2022-08-05T00:56:17.252Z,19.45
2022-08-05T00:58:51.918Z,19.47
2022-08-05T01:01:42.268Z,19.49
2022-08-05T01:04:13.922Z,19.48
2022-08-05T01:06:43.854Z,19.47
2022-08-05T01:09:20.128Z,19.43
2022-08-05T01:11:54.941Z,19.40
2022-08-05T01:14:35.712Z,19.35
2022-08-05T01:17:09.353Z,19.30
2022-08-05T01:20:04.007Z,19.25
2022-08-05T01:22:39.470Z,19.22
2022-08-05T01:25:39.595Z,19.20
2022-08-05T01:28:33.481Z,19.19
2022-08-05T01:31:26.517Z,19.19
2022-08-05T01:34:08.405Z,19.20
2022-08-05T01:36:46.923Z,19.20
2022-08-05T01:39:46.487Z,19.21
2022-08-05T01:42:11.436Z,19.25
2022-08-05T01:44:45.729Z,19.28
2022-08-05T01:47:38.706Z,19.30
2022-08-05T01:50:17.997Z,19.32
2022-08-05T01:52:50.033Z,19.34
2022-08-05T01:55:23.149Z,19.33
2022-08-05T01:58:11.162Z,19.30
2022-08-05T02:00:48.014Z,19.26
2022-08-05T02:03:34.120Z,19.21
2022-08-05T02:06:33.927Z,19.18
2022-08-05T02:08:59.333Z,19.15
2022-08-05T02:11:47.827Z,19.13
2022-08-05T02:14:32.713Z,19.11
2022-08-05T02:17:16.867Z,19.08
2022-08-05T02:20:02.469Z,19.05
2022-08-05T02:22:36.831Z,19.02
2022-08-05T02:25:14.989Z,19.00
2022-08-05T02:27:59.810Z,18.97
2022-08-05T02:30:35.512Z,18.96
2022-08-05T02:33:06.727Z,18.96
2022-08-05T02:35:44.880Z,18.98
2022-08-05T02:38:35.549Z,18.98
2022-08-05T02:41:17.170Z,19.01
2022-08-05T02:44:02.919Z,19.03
2022-08-05T02:46:53.124Z,19.03
2022-08-05T02:49:36.813Z,19.02
2022-08-05T02:52:11.590Z,18.99
2022-08-05T02:54:52.037Z,18.95
2022-08-05T02:58:10.937Z,18.93
2022-08-05T03:00:13.578Z,18.90
2022-08-05T03:02:44.797Z,18.88
2022-08-05T03:05:15.462Z,18.86
2022-08-05T03:08:06.942Z,18.86
2022-08-05T03:10:34.001Z,18.87
2022-08-05T03:15:30.410Z,18.93
2022-08-05T03:18:02.357Z,18.94
2022-08-05T03:20:32.375Z,18.97
2022-08-05T03:23:05.056Z,19.01
2022-08-05T03:26:30.817Z,19.02
2022-08-05T03:28:25.983Z,19.04
2022-08-05T03:30:56.121Z,19.05
2022-08-05T03:33:42.357Z,19.07
2022-08-05T03:36:17.440Z,19.10
2022-08-05T03:38:59.405Z,19.10
2022-08-05T03:41:33.129Z,19.12
2022-08-05T03:44:11.613Z,19.16
2022-08-05T03:46:40.815Z,19.20
2022-08-05T03:49:09.449Z,19.26
2022-08-05T03:52:39.131Z,19.33
2022-08-05T03:55:51.937Z,19.42
2022-08-05T03:57:42.577Z,19.53
2022-08-05T04:00:16.436Z,19.61
2022-08-05T04:02:58.648Z,19.69
2022-08-05T04:05:34.064Z,19.77
2022-08-05T04:08:29.745Z,19.86
2022-08-05T04:10:56.590Z,19.95
2022-08-05T04:13:49.418Z,20.05
2022-08-05T04:16:24.166Z,20.16
2022-08-05T04:18:57.614Z,20.28
2022-08-05T04:22:08.092Z,20.39
2022-08-05T04:24:19.456Z,20.51
2022-08-05T04:26:51.868Z,20.64
2022-08-05T04:29:20.595Z,20.74
2022-08-05T04:31:49.621Z,20.85
2022-08-05T04:34:32.722Z,20.97
2022-08-05T04:37:04.064Z,21.10
2022-08-05T04:39:35.494Z,21.26
2022-08-05T04:42:04.827Z,21.43
2022-08-05T04:44:33.405Z,21.62
2022-08-05T04:47:09.933Z,21.81
2022-08-05T04:50:02.432Z,22.00
2022-08-05T04:52:29.369Z,22.23
2022-08-05T04:55:14.642Z,22.44
2022-08-05T04:57:48.047Z,22.68
2022-08-05T05:00:23.594Z,22.93
2022-08-05T05:02:52.834Z,23.16
2022-08-05T05:05:28.190Z,23.38
2022-08-05T05:08:03.374Z,23.61
2022-08-05T05:10:42.373Z,23.83
2022-08-05T05:13:25.285Z,24.10
2022-08-05T05:15:56.594Z,24.33
2022-08-05T05:18:33.902Z,24.58
2022-08-05T05:21:04.335Z,24.84
2022-08-05T05:23:38.993Z,25.08
2022-08-05T05:26:28.872Z,25.36
2022-08-05T05:29:02.718Z,25.62
2022-08-05T05:31:43.174Z,25.92
2022-08-05T05:34:16.652Z,26.18
2022-08-05T05:36:47.207Z,26.46
2022-08-05T05:39:20.282Z,26.73
2022-08-05T05:41:54.539Z,26.98
2022-08-05T05:44:36.410Z,27.24
2022-08-05T05:47:23.555Z,27.52
2022-08-05T05:49:56.916Z,27.79
2022-08-05T05:52:33.197Z,28.02
2022-08-05T05:55:13.724Z,28.26
2022-08-05T05:57:52.742Z,28.48
2022-08-05T06:00:27.756Z,28.72
2022-08-05T06:03:03.235Z,28.90
2022-08-05T06:05:54.127Z,29.13
2022-08-05T06:08:31.657Z,29.34
2022-08-05T06:11:02.310Z,29.54
2022-08-05T06:13:40.811Z,29.70
2022-08-05T06:16:29.029Z,29.89
2022-08-05T06:19:02.052Z,30.05
2022-08-05T06:21:37.282Z,30.24
2022-08-05T06:24:09.960Z,30.41
2022-08-05T06:26:51.309Z,30.58
2022-08-05T06:29:26.440Z,30.77
2022-08-05T06:32:20.961Z,30.97
2022-08-05T06:34:57.922Z,31.15
2022-08-05T06:37:56.868Z,31.28
2022-08-05T06:40:18.193Z,31.39
2022-08-05T06:42:52.370Z,31.52
2022-08-05T06:45:44.996Z,31.64
2022-08-05T06:48:47.060Z,31.79
2022-08-05T06:51:00.156Z,31.97
2022-08-05T06:53:29.529Z,32.09
2022-08-05T06:55:59.883Z,32.20
2022-08-05T06:58:34.939Z,32.33
2022-08-05T07:01:07.116Z,32.45
2022-08-05T07:03:36.143Z,32.62
2022-08-05T07:06:06.243Z,32.78
2022-08-05T07:08:47.609Z,32.93
2022-08-05T07:11:17.096Z,33.05
2022-08-05T07:14:20.720Z,33.22
2022-08-05T07:17:58.188Z,33.45
2022-08-05T07:22:42.982Z,33.68
2022-08-05T07:25:53.878Z,33.79
2022-08-05T07:28:05.985Z,33.91
2022-08-05T07:30:40.999Z,34.06
2022-08-05T07:33:15.529Z,34.24
2022-08-05T07:36:04.849Z,34.37
2022-08-05T07:38:43.121Z,34.48
2022-08-05T07:42:12.920Z,34.60
2022-08-05T07:44:12.122Z,34.69
2022-08-05T07:46:50.125Z,34.78
2022-08-05T07:49:20.807Z,34.86
2022-08-05T07:51:53.798Z,34.93
2022-08-05T07:54:30.903Z,35.02
2022-08-05T07:57:41.801Z,35.05
2022-08-05T07:59:52.582Z,35.06
2022-08-05T08:02:30.917Z,35.13
2022-08-05T08:05:18.431Z,35.16
2022-08-05T08:07:59.849Z,35.28
2022-08-05T08:10:30.150Z,35.33
2022-08-05T08:12:59.298Z,35.42
2022-08-05T08:16:33.454Z,35.61
2022-08-05T08:18:21.025Z,35.70
2022-08-05T08:21:01.950Z,35.70
2022-08-05T08:24:03.053Z,35.78
2022-08-05T08:26:27.007Z,35.75
2022-08-05T08:29:09.654Z,35.84
2022-08-05T08:31:49.850Z,35.94
2022-08-05T08:34:30.569Z,36.09
2022-08-05T08:37:03.422Z,36.22
2022-08-05T08:39:37.620Z,36.17
2022-08-05T08:42:32.580Z,36.12
2022-08-05T08:45:18.391Z,36.28
2022-08-05T08:48:11.293Z,36.19
2022-08-05T08:51:07.763Z,36.14
2022-08-05T08:53:44.351Z,36.16
2022-08-05T08:56:14.947Z,36.39
2022-08-05T08:58:48.685Z,36.69
2022-08-05T09:01:19.381Z,36.92
2022-08-05T09:03:55.221Z,37.17
2022-08-05T09:06:30.189Z,37.45
2022-08-05T09:09:01.853Z,37.51
2022-08-05T09:11:51.955Z,37.46
2022-08-05T09:14:59.038Z,37.42
2022-08-05T09:17:40.747Z,37.37
2022-08-05T09:20:08.366Z,37.55
2022-08-05T09:23:20.003Z,37.75
2022-08-05T09:26:00.898Z,37.96
2022-08-05T09:28:35.725Z,38.12
2022-08-05T09:31:43.466Z,38.07
2022-08-05T09:34:01.668Z,38.28
2022-08-05T09:36:55.630Z,38.35
2022-08-05T09:39:42.005Z,38.66
2022-08-05T09:42:23.969Z,38.79
2022-08-05T09:45:17.825Z,39.02
2022-08-05T09:47:55.517Z,39.21
2022-08-05T09:50:44.260Z,39.33
2022-08-05T09:53:22.921Z,39.45
2022-08-05T09:56:13.177Z,39.37
2022-08-05T09:58:42.618Z,38.95
2022-08-05T10:01:15.660Z,38.89
2022-08-05T10:04:29.337Z,39.08
2022-08-05T10:06:59.936Z,38.66
2022-08-05T10:09:30.512Z,38.40
2022-08-05T10:12:30.306Z,38.58
2022-08-05T10:15:20.264Z,38.97
2022-08-05T10:18:07.142Z,39.31
2022-08-05T10:20:39.912Z,39.47
2022-08-05T10:23:34.168Z,39.69
2022-08-05T10:26:04.855Z,40.00
2022-08-05T10:28:36.804Z,40.16
2022-08-05T10:32:52.971Z,40.25
2022-08-05T10:33:54.920Z,40.35
2022-08-05T10:36:26.107Z,40.06
2022-08-05T10:39:11.621Z,39.52
2022-08-05T10:41:56.738Z,38.93
2022-08-05T10:44:29.836Z,38.47
2022-08-05T10:46:58.849Z,38.16
2022-08-05T10:49:32.934Z,38.38
2022-08-05T10:52:05.289Z,38.60
2022-08-05T10:55:08.225Z,38.80
2022-08-05T10:57:44.681Z,38.80
2022-08-05T11:00:24.719Z,38.55
2022-08-05T11:03:25.702Z,38.11
2022-08-05T11:06:08.385Z,37.72
2022-08-05T11:08:39.174Z,37.63
2022-08-05T11:11:44.409Z,37.54
2022-08-05T11:14:32.629Z,37.65
2022-08-05T11:18:00.415Z,38.02
2022-08-05T11:20:44.633Z,38.41
2022-08-05T11:24:02.930Z,38.79
2022-08-05T11:26:29.267Z,39.40
2022-08-05T11:29:11.958Z,39.80
2022-08-05T11:31:57.686Z,40.13
2022-08-05T11:34:47.585Z,40.37
2022-08-05T11:38:26.192Z,40.59
2022-08-05T11:41:35.335Z,40.39
2022-08-05T11:44:04.404Z,40.34
2022-08-05T11:46:58.404Z,40.33
2022-08-05T11:49:27.840Z,40.35
2022-08-05T11:51:57.562Z,40.48
2022-08-05T11:54:34.020Z,40.63
2022-08-05T11:57:08.832Z,40.70
2022-08-05T11:59:54.566Z,40.78
2022-08-05T12:02:31.824Z,41.01
2022-08-05T12:05:08.098Z,41.19
2022-08-05T12:08:08.179Z,41.31
2022-08-05T12:10:45.721Z,41.17
2022-08-05T12:13:47.509Z,40.70
2022-08-05T12:16:14.418Z,40.16
2022-08-05T12:18:52.766Z,39.72
2022-08-05T12:21:23.599Z,39.38
2022-08-05T12:24:07.553Z,39.47
2022-08-05T12:26:44.514Z,39.66
2022-08-05T12:29:27.345Z,39.86
2022-08-05T12:32:02.209Z,40.15
2022-08-05T12:34:37.211Z,40.21
2022-08-05T12:37:29.754Z,40.23
2022-08-05T12:40:03.674Z,40.35
2022-08-05T12:42:40.363Z,40.49
2022-08-05T12:45:10.468Z,40.69
2022-08-05T12:47:43.321Z,40.89
2022-08-05T12:50:30.868Z,41.14
2022-08-05T12:53:00.533Z,41.41
2022-08-05T12:55:32.980Z,41.45
2022-08-05T12:58:50.869Z,41.16
2022-08-05T13:02:02.756Z,40.79
2022-08-05T13:03:43.286Z,40.65
2022-08-05T13:06:18.150Z,40.54
2022-08-05T13:08:52.036Z,40.69
2022-08-05T13:11:59.992Z,41.03
2022-08-05T13:14:24.997Z,41.31
2022-08-05T13:17:24.962Z,41.44
2022-08-05T13:20:07.369Z,41.72
2022-08-05T13:22:40.084Z,41.97
2022-08-05T13:25:18.632Z,42.13
2022-08-05T13:27:53.397Z,42.11
2022-08-05T13:30:33.955Z,41.88
2022-08-05T13:33:05.007Z,41.80
2022-08-05T13:35:47.034Z,41.86
2022-08-05T13:38:30.624Z,41.94
2022-08-05T13:41:00.524Z,42.03
2022-08-05T13:43:43.498Z,41.80
2022-08-05T13:46:16.127Z,41.66
2022-08-05T13:48:57.137Z,41.82
2022-08-05T13:51:36.380Z,41.85
2022-08-05T13:54:15.066Z,41.88
2022-08-05T13:56:51.589Z,41.78
2022-08-05T13:59:24.293Z,41.62
2022-08-05T14:01:58.166Z,41.59
2022-08-05T14:05:01.424Z,41.52
2022-08-05T14:08:00.276Z,41.15
2022-08-05T14:10:31.334Z,41.00
2022-08-05T14:13:00.246Z,40.93
2022-08-05T14:16:08.955Z,40.91
2022-08-05T14:18:23.354Z,40.92
2022-08-05T14:20:55.114Z,40.80
2022-08-05T14:23:26.305Z,40.81
2022-08-05T14:25:58.822Z,40.89
2022-08-05T14:28:29.413Z,40.87
2022-08-05T14:31:00.608Z,40.88
2022-08-05T14:33:32.518Z,40.98
2022-08-05T14:36:21.622Z,41.06
2022-08-05T14:38:51.868Z,41.00
2022-08-05T14:41:20.464Z,40.91
2022-08-05T14:44:02.168Z,40.92
2022-08-05T14:46:38.423Z,40.91
2022-08-05T14:49:08.186Z,40.89
2022-08-05T14:51:42.437Z,40.82
2022-08-05T14:54:30.141Z,40.89
2022-08-05T14:57:05.106Z,40.90
2022-08-05T14:59:38.624Z,40.83
2022-08-05T15:02:15.737Z,40.80
2022-08-05T15:04:47.919Z,40.78
2022-08-05T15:08:12.228Z,40.74
2022-08-05T15:10:09.731Z,40.77
2022-08-05T15:12:57.979Z,40.74
2022-08-05T15:15:55.661Z,40.39
2022-08-05T15:18:17.573Z,39.83
2022-08-05T15:20:46.971Z,39.37
2022-08-05T15:23:16.580Z,38.93
2022-08-05T15:25:53.429Z,38.69
2022-08-05T15:28:27.611Z,38.58
2022-08-05T15:30:56.990Z,38.77
2022-08-05T15:34:05.910Z,39.00
2022-08-05T15:36:17.205Z,39.33
2022-08-05T15:40:41.208Z,39.53
2022-08-05T15:41:58.139Z,39.77
2022-08-05T15:44:30.253Z,40.05
2022-08-05T15:47:02.101Z,40.13
2022-08-05T15:49:53.686Z,39.83
2022-08-05T15:52:51.618Z,39.76
2022-08-05T15:55:16.116Z,39.91
2022-08-05T15:57:49.054Z,39.98
2022-08-05T16:00:32.529Z,40.06
2022-08-05T16:03:07.454Z,40.17
2022-08-05T16:05:36.388Z,40.24
2022-08-05T16:08:08.216Z,40.24
2022-08-05T16:10:37.210Z,40.22
2022-08-05T16:13:06.101Z,40.18
2022-08-05T16:15:34.691Z,40.17
2022-08-05T16:18:04.222Z,40.09
2022-08-05T16:20:38.315Z,39.98
2022-08-05T16:23:08.686Z,39.86
2022-08-05T16:25:38.139Z,39.82
2022-08-05T16:28:09.769Z,39.82
2022-08-05T16:30:39.616Z,39.81
2022-08-05T16:33:10.757Z,39.70
2022-08-05T16:36:39.176Z,39.51
2022-08-05T16:39:12.196Z,39.20
2022-08-05T16:42:13.943Z,39.01
2022-08-05T16:44:31.831Z,38.76
2022-08-05T16:47:00.318Z,38.54
2022-08-05T16:49:29.120Z,38.31
2022-08-05T16:51:58.313Z,38.03
2022-08-05T16:54:32.898Z,37.80
2022-08-05T16:57:02.440Z,37.59
2022-08-05T16:59:30.988Z,37.37
2022-08-05T17:01:59.593Z,37.14
2022-08-05T17:04:31.369Z,36.78
2022-08-05T17:07:03.418Z,36.39
2022-08-05T17:09:57.242Z,35.95
2022-08-05T17:13:37.789Z,35.48
2022-08-05T17:17:15.800Z,34.91
2022-08-05T17:19:46.279Z,34.41
2022-08-05T17:22:24.931Z,34.08
2022-08-05T17:24:57.243Z,33.74
2022-08-05T17:27:33.587Z,33.44
2022-08-05T17:30:12.151Z,33.12
2022-08-05T17:32:48.171Z,32.80
2022-08-05T17:35:20.720Z,32.52
2022-08-05T17:37:50.513Z,32.26
2022-08-05T17:40:22.481Z,32.00
2022-08-05T17:42:53.524Z,31.73
2022-08-05T17:45:38.298Z,31.47
2022-08-05T17:48:08.454Z,31.20
2022-08-05T17:50:37.044Z,30.97
2022-08-05T17:53:08.468Z,30.77
2022-08-05T17:55:39.468Z,30.57
2022-08-05T17:58:12.595Z,30.37
2022-08-05T18:00:47.465Z,30.18
2022-08-05T18:07:12.308Z,29.83
2022-08-05T18:10:41.946Z,29.61
2022-08-05T18:13:12.242Z,29.39
2022-08-05T18:16:51.008Z,29.22
2022-08-05T18:19:22.798Z,28.97
2022-08-05T18:22:57.320Z,28.81
2022-08-05T18:26:27.506Z,28.59
2022-08-05T18:30:01.669Z,28.37
2022-08-05T18:33:37.749Z,28.18
2022-08-05T18:37:33.567Z,27.98
2022-08-05T18:41:57.705Z,27.81
2022-08-05T18:44:56.219Z,27.65
2022-08-05T18:47:26.904Z,27.50
2022-08-05T18:50:15.636Z,27.40
2022-08-05T18:52:50.829Z,27.29
2022-08-05T18:55:22.256Z,27.20
2022-08-05T18:57:53.276Z,27.11
2022-08-05T19:00:28.660Z,27.02
2022-08-05T19:03:03.906Z,26.94
2022-08-05T19:06:12.092Z,26.85
2022-08-05T19:08:30.468Z,26.76
2022-08-05T19:11:04.783Z,26.69
2022-08-05T19:13:36.774Z,26.63
2022-08-05T19:16:22.234Z,26.57
2022-08-05T19:18:56.410Z,26.51
2022-08-05T19:21:29.413Z,26.47
2022-08-05T19:24:06.838Z,26.43
2022-08-05T19:26:54.733Z,26.41
2022-08-05T19:29:26.761Z,26.39
2022-08-05T19:32:11.466Z,26.38
2022-08-05T19:34:41.984Z,26.38
2022-08-05T19:37:29.862Z,26.40
2022-08-05T19:40:15.053Z,26.42
2022-08-05T19:43:00.686Z,26.45
2022-08-05T19:45:33.268Z,26.49
2022-08-05T19:48:06.418Z,26.53
2022-08-05T19:50:35.683Z,26.55
2022-08-05T19:53:10.255Z,26.55
2022-08-05T19:56:14.201Z,26.56
2022-08-05T19:58:30.067Z,26.57
2022-08-05T20:00:59.524Z,26.58
2022-08-05T20:03:38.665Z,26.60
2022-08-05T20:06:15.552Z,26.62
2022-08-05T20:08:47.525Z,26.63
2022-08-05T20:11:19.504Z,26.65
2022-08-05T20:13:59.082Z,26.66
2022-08-05T20:16:37.722Z,26.68
2022-08-05T20:19:06.870Z,26.69
2022-08-05T20:21:37.811Z,26.70
2022-08-05T20:24:07.895Z,26.70
2022-08-05T20:26:40.256Z,26.71
2022-08-05T20:29:26.739Z,26.71
2022-08-05T20:31:58.372Z,26.70
2022-08-05T20:34:28.960Z,26.68
2022-08-05T20:36:57.533Z,26.67
2022-08-05T20:39:26.350Z,26.65
2022-08-05T20:42:06.809Z,26.63
2022-08-05T20:44:40.489Z,26.61
2022-08-05T20:47:10.098Z,26.60
2022-08-05T20:49:40.174Z,26.57
2022-08-05T20:52:10.637Z,26.55
2022-08-05T20:54:55.114Z,26.53
2022-08-05T20:57:44.001Z,26.51
2022-08-05T21:00:40.987Z,26.47
2022-08-05T21:03:06.857Z,26.45
2022-08-05T21:05:53.708Z,26.41
2022-08-05T21:08:35.881Z,26.38
2022-08-05T21:11:12.675Z,26.36
2022-08-05T21:13:55.824Z,26.33
2022-08-05T21:16:29.938Z,26.31
2022-08-05T21:19:01.451Z,26.30
2022-08-05T21:21:44.506Z,26.28
2022-08-05T21:24:19.744Z,26.25
2022-08-05T21:26:58.037Z,26.24
2022-08-05T21:29:31.687Z,26.22
2022-08-05T21:32:04.833Z,26.18
2022-08-05T21:34:35.659Z,26.15
2022-08-05T21:37:05.351Z,26.12
2022-08-05T21:39:40.261Z,26.07
2022-08-05T21:42:19.944Z,26.01
2022-08-05T21:44:59.079Z,25.94
2022-08-05T21:47:55.510Z,25.88
2022-08-05T21:50:17.042Z,25.78
2022-08-05T21:52:47.326Z,25.69
2022-08-05T21:55:17.679Z,25.60
2022-08-05T21:58:07.211Z,25.49
2022-08-05T22:00:40.111Z,25.39
2022-08-05T22:03:14.865Z,25.30
2022-08-05T22:05:48.733Z,25.22
2022-08-05T22:08:22.456Z,25.14
2022-08-05T22:10:53.998Z,25.06
2022-08-05T22:14:18.277Z,24.99
2022-08-05T22:16:41.258Z,24.92
2022-08-05T22:19:00.402Z,24.85
2022-08-05T22:21:29.847Z,24.78
2022-08-05T22:24:40.622Z,24.72
2022-08-05T22:27:25.488Z,24.64
2022-08-05T22:30:17.094Z,24.54
2022-08-05T22:32:46.439Z,24.44
2022-08-05T22:35:15.101Z,24.34
2022-08-05T22:37:59.180Z,24.24
2022-08-05T22:40:30.783Z,24.11
2022-08-05T22:42:59.496Z,24.02
2022-08-05T22:45:28.181Z,23.91
2022-08-05T22:47:59.942Z,23.82
2022-08-05T22:50:28.535Z,23.75
2022-08-05T22:52:57.061Z,23.71
2022-08-05T22:55:26.310Z,23.69
2022-08-05T22:57:55.184Z,23.67
2022-08-05T23:00:24.358Z,23.67
2022-08-05T23:02:56.613Z,23.68
2022-08-05T23:05:27.307Z,23.68
2022-08-05T23:07:56.199Z,23.67
2022-08-05T23:10:25.056Z,23.67
2022-08-05T23:12:55.795Z,23.65
2022-08-05T23:15:26.727Z,23.64
2022-08-05T23:18:02.026Z,23.62
2022-08-05T23:20:33.676Z,23.60
2022-08-05T23:23:08.186Z,23.60
2022-08-05T23:25:52.196Z,23.58
2022-08-05T23:28:29.070Z,23.57
2022-08-05T23:31:03.707Z,23.54
2022-08-05T23:34:03.966Z,23.51
2022-08-05T23:36:38.525Z,23.47
2022-08-05T23:39:09.224Z,23.44
2022-08-05T23:41:41.084Z,23.40
2022-08-05T23:44:19.827Z,23.37
2022-08-05T23:46:53.826Z,23.34
2022-08-05T23:49:34.114Z,23.32
2022-08-05T23:52:25.466Z,23.29
2022-08-05T23:54:55.707Z,23.26
2022-08-05T23:57:28.033Z,23.24
